createdAt,value
2023-05-19T00:01:00.575Z,2.50
2023-05-19T00:03:28.915Z,2.50
2023-05-19T00:05:57.377Z,2.30
2023-05-19T00:08:25.339Z,2.90
2023-05-19T00:10:53.712Z,2.60
2023-05-19T00:13:21.603Z,2.30
2023-05-19T00:15:51.061Z,2.80
2023-05-19T00:18:19.003Z,2.90
2023-05-19T00:20:46.845Z,2.70
2023-05-19T00:23:14.863Z,2.70
2023-05-19T00:25:42.769Z,2.20
2023-05-19T00:28:10.796Z,2.60
2023-05-19T00:30:38.646Z,1.90
2023-05-19T00:33:06.522Z,2.20
2023-05-19T00:35:34.643Z,2.10
2023-05-19T00:38:02.512Z,2.10
2023-05-19T00:40:30.643Z,2.40
2023-05-19T00:42:58.701Z,2.30
2023-05-19T00:45:26.638Z,2.40
2023-05-19T00:47:54.836Z,2.30
2023-05-19T00:50:24.188Z,2.10
2023-05-19T00:52:52.058Z,2.30
2023-05-19T00:55:22.684Z,2.30
2023-05-19T00:57:50.586Z,2.20
2023-05-19T01:00:18.615Z,2.10
2023-05-19T01:02:46.461Z,1.60
2023-05-19T01:05:14.288Z,1.90
2023-05-19T01:07:42.466Z,1.40
2023-05-19T01:10:11.372Z,1.50
2023-05-19T01:12:39.995Z,2.30
2023-05-19T01:15:10.000Z,3.30
2023-05-19T01:17:45.848Z,2.70
2023-05-19T01:20:26.390Z,2.10
2023-05-19T01:23:30.714Z,2.20
2023-05-19T01:26:11.932Z,2.10
2023-05-19T01:29:28.052Z,2.00
2023-05-19T01:31:56.038Z,2.10
2023-05-19T01:34:23.930Z,1.90
2023-05-19T01:36:52.309Z,2.00
2023-05-19T01:39:20.046Z,2.40
2023-05-19T01:41:47.972Z,1.90
2023-05-19T01:44:16.336Z,2.40
2023-05-19T01:46:45.568Z,2.30
2023-05-19T01:49:13.581Z,2.50
2023-05-19T01:51:41.592Z,2.20
2023-05-19T01:54:09.412Z,2.00
2023-05-19T02:00:10.020Z,2.20
2023-05-19T02:03:08.310Z,2.10
2023-05-19T02:06:24.078Z,2.30
2023-05-19T02:09:02.885Z,2.10
2023-05-19T02:11:38.151Z,1.90
2023-05-19T02:14:16.108Z,2.50
2023-05-19T02:16:48.397Z,2.50
2023-05-19T02:19:25.311Z,2.30
2023-05-19T02:21:53.402Z,2.00
2023-05-19T02:24:23.114Z,2.80
2023-05-19T02:26:52.216Z,2.20
2023-05-19T02:29:20.693Z,3.00
2023-05-19T02:31:48.736Z,2.40
2023-05-19T02:34:16.741Z,2.80
2023-05-19T02:36:44.785Z,3.40
2023-05-19T02:39:13.046Z,3.10
2023-05-19T02:41:41.042Z,2.90
2023-05-19T02:44:09.493Z,3.10
2023-05-19T02:46:37.531Z,3.30
2023-05-19T02:49:05.414Z,3.80
2023-05-19T02:51:33.180Z,3.90
2023-05-19T02:54:01.007Z,3.40
2023-05-19T02:56:28.810Z,3.60
2023-05-19T02:58:56.864Z,3.80
2023-05-19T03:01:24.843Z,4.00
2023-05-19T03:03:52.813Z,3.70
2023-05-19T03:06:23.708Z,3.70
2023-05-19T03:08:51.631Z,3.70
2023-05-19T03:11:19.437Z,4.00
2023-05-19T03:13:47.298Z,4.20
2023-05-19T03:16:15.242Z,3.80
2023-05-19T03:18:43.129Z,4.10
2023-05-19T03:21:11.165Z,3.90
2023-05-19T03:23:39.131Z,3.50
2023-05-19T03:26:07.182Z,3.80
2023-05-19T03:28:35.163Z,4.70
2023-05-19T03:31:03.549Z,4.10
2023-05-19T03:33:35.532Z,3.60
2023-05-19T03:36:04.218Z,3.90
2023-05-19T03:38:35.544Z,4.10
2023-05-19T03:41:03.878Z,3.20
2023-05-19T03:43:32.455Z,3.50
2023-05-19T03:46:03.795Z,3.70
2023-05-19T03:48:55.004Z,3.70
2023-05-19T03:51:37.868Z,3.60
2023-05-19T03:54:17.106Z,3.50
2023-05-19T03:56:45.698Z,3.50
2023-05-19T03:59:14.044Z,3.70
2023-05-19T04:01:42.841Z,3.50
2023-05-19T04:04:11.006Z,3.40
2023-05-19T04:06:38.849Z,3.70
2023-05-19T04:09:14.550Z,3.80
2023-05-19T04:11:42.914Z,3.50
2023-05-19T04:14:11.246Z,3.50
2023-05-19T04:16:39.203Z,3.50
2023-05-19T04:19:07.531Z,3.00
2023-05-19T04:21:36.342Z,3.60
2023-05-19T04:24:06.625Z,3.40
2023-05-19T04:26:36.157Z,3.50
2023-05-19T04:29:05.269Z,3.70
2023-05-19T04:31:35.361Z,3.00
2023-05-19T04:34:03.650Z,3.00
2023-05-19T04:36:31.640Z,2.90
2023-05-19T04:39:02.619Z,3.00
2023-05-19T04:41:31.578Z,3.00
2023-05-19T04:44:00.363Z,3.00
2023-05-19T04:46:30.199Z,2.60
2023-05-19T04:49:01.223Z,2.50
2023-05-19T04:51:31.219Z,2.70
2023-05-19T04:54:01.703Z,2.50
2023-05-19T04:56:30.220Z,2.60
2023-05-19T04:58:58.407Z,2.20
2023-05-19T05:01:28.178Z,2.40
2023-05-19T05:03:58.915Z,2.30
2023-05-19T05:06:28.709Z,2.00
2023-05-19T05:08:57.072Z,1.80
2023-05-19T05:11:26.773Z,1.60
2023-05-19T05:13:58.216Z,1.50
2023-05-19T05:16:27.915Z,1.70
2023-05-19T05:18:56.323Z,1.20
2023-05-19T05:21:24.809Z,1.60
2023-05-19T05:23:53.418Z,1.80
2023-05-19T05:26:24.906Z,0.90
2023-05-19T05:28:55.050Z,1.40
2023-05-19T05:31:22.998Z,1.10
2023-05-19T05:33:50.850Z,1.20
2023-05-19T05:36:21.503Z,1.10
2023-05-19T05:38:49.566Z,1.00
2023-05-19T05:41:17.540Z,1.30
2023-05-19T05:43:47.242Z,1.60
2023-05-19T05:46:15.223Z,1.10
2023-05-19T05:48:43.604Z,1.20
2023-05-19T05:51:12.172Z,1.00
2023-05-19T05:53:43.408Z,1.40
2023-05-19T05:56:12.815Z,1.10
2023-05-19T05:58:45.667Z,1.60
2023-05-19T06:01:16.832Z,1.80
2023-05-19T06:03:45.194Z,1.80
2023-05-19T06:06:16.246Z,1.50
2023-05-19T06:08:44.118Z,1.30
2023-05-19T06:11:12.461Z,1.40
2023-05-19T06:13:41.538Z,1.60
2023-05-19T06:16:11.394Z,1.40
2023-05-19T06:18:43.103Z,1.50
2023-05-19T06:21:13.583Z,1.80
2023-05-19T06:23:41.753Z,1.30
2023-05-19T06:26:10.606Z,2.10
2023-05-19T06:28:38.906Z,4.10
2023-05-19T06:31:06.975Z,1.70
2023-05-19T06:33:43.746Z,1.60
2023-05-19T06:36:12.205Z,2.80
2023-05-19T06:38:41.029Z,2.40
2023-05-19T06:41:09.599Z,2.00
2023-05-19T06:43:38.002Z,1.70
2023-05-19T06:46:05.881Z,2.40
2023-05-19T06:48:34.505Z,3.50
2023-05-19T06:51:04.345Z,2.30
2023-05-19T06:53:33.763Z,1.80
2023-05-19T06:56:03.432Z,2.50
2023-05-19T06:58:33.786Z,2.40
2023-05-19T07:01:03.169Z,2.00
2023-05-19T07:03:37.427Z,1.80
2023-05-19T07:06:07.924Z,1.60
2023-05-19T07:08:37.304Z,1.70
2023-05-19T07:11:06.192Z,1.70
2023-05-19T07:13:34.870Z,1.70
2023-05-19T07:16:02.995Z,1.70
2023-05-19T07:18:33.869Z,1.80
2023-05-19T07:21:01.907Z,1.70
2023-05-19T07:23:29.900Z,1.80
2023-05-19T07:25:57.720Z,2.20
2023-05-19T07:28:25.748Z,2.80
2023-05-19T07:30:53.644Z,4.50
2023-05-19T07:33:21.555Z,3.00
2023-05-19T07:35:49.472Z,1.90
2023-05-19T07:38:17.614Z,3.20
2023-05-19T07:40:45.575Z,5.50
2023-05-19T07:43:13.427Z,6.50
2023-05-19T07:45:41.334Z,4.80
2023-05-19T07:48:09.331Z,3.60
2023-05-19T07:50:37.344Z,2.50
2023-05-19T07:53:05.138Z,2.30
2023-05-19T07:55:32.906Z,2.50
2023-05-19T07:58:00.788Z,2.40
2023-05-19T08:00:28.913Z,1.90
2023-05-19T08:02:57.479Z,2.00
2023-05-19T08:05:29.830Z,4.40
2023-05-19T08:07:57.651Z,3.40
2023-05-19T08:10:25.670Z,2.50
2023-05-19T08:12:53.531Z,2.70
2023-05-19T08:15:21.930Z,2.70
2023-05-19T08:17:49.989Z,2.20
2023-05-19T08:20:18.052Z,2.10
2023-05-19T08:22:45.896Z,2.20
2023-05-19T08:25:13.895Z,1.80
2023-05-19T08:27:41.733Z,2.40
2023-05-19T08:30:10.613Z,2.50
2023-05-19T08:32:38.484Z,2.30
2023-05-19T08:35:07.744Z,2.70
2023-05-19T08:37:38.180Z,2.00
2023-05-19T08:40:08.830Z,2.80
2023-05-19T08:42:36.698Z,2.70
2023-05-19T08:45:05.261Z,2.40
2023-05-19T08:47:33.086Z,2.30
2023-05-19T08:50:07.805Z,2.50
2023-05-19T08:52:49.519Z,2.50
2023-05-19T08:55:46.039Z,3.20
2023-05-19T08:58:13.974Z,2.80
2023-05-19T09:00:42.392Z,2.90
2023-05-19T09:03:22.826Z,2.70
2023-05-19T09:05:51.392Z,2.70
2023-05-19T09:08:19.616Z,3.40
2023-05-19T09:10:47.481Z,3.50
2023-05-19T09:13:15.964Z,3.10
2023-05-19T09:15:43.849Z,3.40
2023-05-19T09:18:13.594Z,3.10
2023-05-19T09:20:44.010Z,3.20
2023-05-19T09:23:16.381Z,4.10
2023-05-19T09:25:52.166Z,3.20
2023-05-19T09:28:29.591Z,3.20
2023-05-19T09:31:10.351Z,3.20
2023-05-19T09:33:45.515Z,3.10
2023-05-19T09:36:14.004Z,2.90
2023-05-19T09:38:42.642Z,2.80
2023-05-19T09:41:10.462Z,3.10
2023-05-19T09:43:38.374Z,3.30
2023-05-19T09:46:12.912Z,4.00
2023-05-19T09:48:42.693Z,3.40
2023-05-19T09:51:11.153Z,3.70
2023-05-19T09:53:39.351Z,3.60
2023-05-19T09:56:07.491Z,3.30
2023-05-19T09:58:36.688Z,3.40
2023-05-19T10:01:05.750Z,3.80
2023-05-19T10:03:34.115Z,3.20
2023-05-19T10:06:02.329Z,3.30
2023-05-19T10:08:30.733Z,3.20
2023-05-19T10:10:58.958Z,3.70
2023-05-19T10:13:27.013Z,3.60
2023-05-19T10:15:59.215Z,3.50
2023-05-19T10:18:29.686Z,3.80
2023-05-19T10:20:58.210Z,4.30
2023-05-19T10:23:26.674Z,4.10
2023-05-19T10:25:57.118Z,4.00
2023-05-19T10:28:28.317Z,3.70
2023-05-19T10:30:58.630Z,4.50
2023-05-19T10:33:54.332Z,4.10
2023-05-19T10:36:45.678Z,4.30
2023-05-19T10:39:18.331Z,4.20
2023-05-19T10:42:07.674Z,3.90
2023-05-19T10:45:03.435Z,4.10
2023-05-19T10:47:32.595Z,3.70
2023-05-19T10:50:00.865Z,4.10
2023-05-19T10:52:33.054Z,3.70
2023-05-19T10:55:01.123Z,4.00
2023-05-19T10:57:32.018Z,4.10
2023-05-19T11:00:10.421Z,3.60
2023-05-19T11:02:44.488Z,4.50
2023-05-19T11:05:15.017Z,4.50
2023-05-19T11:07:45.348Z,4.20
2023-05-19T11:10:13.306Z,4.70
2023-05-19T11:12:44.066Z,4.20
2023-05-19T11:15:14.078Z,4.30
2023-05-19T11:17:43.243Z,4.70
2023-05-19T11:20:25.426Z,4.10
2023-05-19T11:23:15.868Z,4.20
2023-05-19T11:25:48.511Z,4.20
2023-05-19T11:28:28.119Z,4.70
2023-05-19T11:30:57.942Z,4.20
2023-05-19T11:33:30.178Z,3.90
2023-05-19T11:35:58.619Z,3.80
2023-05-19T11:38:28.445Z,3.80
2023-05-19T11:40:56.902Z,3.80
2023-05-19T11:43:25.944Z,3.30
2023-05-19T11:45:54.770Z,3.70
2023-05-19T11:48:22.933Z,3.60
2023-05-19T11:50:51.116Z,3.40
2023-05-19T11:53:20.047Z,4.00
2023-05-19T11:55:48.773Z,4.00
2023-05-19T11:58:17.547Z,4.40
2023-05-19T12:00:48.478Z,4.40
2023-05-19T12:03:28.769Z,3.90
2023-05-19T12:05:56.926Z,3.50
2023-05-19T12:08:25.405Z,3.30
2023-05-19T12:10:54.277Z,4.70
2023-05-19T12:13:22.833Z,3.70
2023-05-19T12:15:52.645Z,4.20
2023-05-19T12:18:21.211Z,4.20
2023-05-19T12:20:49.077Z,4.00
2023-05-19T12:23:16.969Z,4.30
2023-05-19T12:25:44.868Z,4.30
2023-05-19T12:28:12.854Z,4.60
2023-05-19T12:30:41.494Z,4.40
2023-05-19T12:33:09.952Z,4.40
2023-05-19T12:35:37.869Z,4.30
2023-05-19T12:38:06.706Z,4.60
2023-05-19T12:40:36.147Z,4.40
2023-05-19T12:43:04.646Z,4.40
2023-05-19T12:45:36.221Z,4.80
2023-05-19T12:48:06.969Z,3.90
2023-05-19T12:50:35.272Z,4.30
2023-05-19T12:53:03.553Z,4.70
2023-05-19T12:55:31.416Z,6.20
2023-05-19T12:57:59.308Z,5.30
2023-05-19T13:00:32.414Z,7.10
2023-05-19T13:03:05.118Z,5.30
2023-05-19T13:05:40.688Z,6.10
2023-05-19T13:08:13.879Z,5.20
2023-05-19T13:10:43.777Z,5.50
2023-05-19T13:13:11.833Z,5.60
2023-05-19T13:15:42.203Z,5.40
2023-05-19T13:18:11.986Z,5.90
2023-05-19T13:20:42.464Z,6.40
2023-05-19T13:23:13.969Z,5.70
2023-05-19T13:25:42.132Z,6.40
2023-05-19T13:28:10.024Z,6.90
2023-05-19T13:30:40.138Z,6.70
2023-05-19T13:33:08.129Z,6.70
2023-05-19T13:35:39.188Z,7.50
2023-05-19T13:38:08.189Z,6.80
2023-05-19T13:40:36.734Z,7.60
2023-05-19T13:43:04.783Z,7.40
2023-05-19T13:45:32.765Z,8.00
2023-05-19T13:48:00.642Z,7.10
2023-05-19T13:50:28.634Z,7.20
2023-05-19T13:52:56.431Z,6.40
2023-05-19T13:55:27.188Z,6.80
2023-05-19T13:57:55.281Z,7.60
2023-05-19T14:00:23.972Z,6.90
2023-05-19T14:02:51.954Z,7.50
2023-05-19T14:05:20.062Z,7.40
2023-05-19T14:07:47.885Z,8.10
2023-05-19T14:10:16.222Z,7.80
2023-05-19T14:13:06.496Z,8.40
2023-05-19T14:15:37.505Z,7.60
2023-05-19T14:18:06.574Z,8.10
2023-05-19T14:20:34.945Z,7.70
2023-05-19T14:23:03.066Z,7.70
2023-05-19T14:25:31.047Z,8.30
2023-05-19T14:27:58.941Z,8.60
2023-05-19T14:30:26.973Z,8.30
2023-05-19T14:32:54.948Z,10.50
2023-05-19T14:35:23.407Z,9.30
2023-05-19T14:37:51.408Z,9.40
2023-05-19T14:40:19.405Z,9.90
2023-05-19T14:42:47.318Z,10.30
2023-05-19T14:45:15.420Z,9.50
2023-05-19T14:47:43.338Z,9.30
2023-05-19T14:50:11.509Z,8.70
2023-05-19T14:52:39.547Z,9.00
2023-05-19T14:55:07.874Z,9.50
2023-05-19T14:57:35.897Z,11.00
2023-05-19T15:00:04.189Z,11.80
2023-05-19T15:02:32.056Z,10.90
2023-05-19T15:05:01.059Z,10.90
2023-05-19T15:07:28.932Z,10.70
2023-05-19T15:09:56.907Z,10.60
2023-05-19T15:12:24.719Z,10.30
2023-05-19T15:14:52.724Z,13.20
2023-05-19T15:17:20.657Z,11.60
2023-05-19T15:19:48.628Z,11.00
2023-05-19T15:22:16.468Z,11.60
2023-05-19T15:24:44.348Z,10.50
2023-05-19T15:27:12.307Z,11.90
2023-05-19T15:29:40.115Z,10.20
2023-05-19T15:32:08.770Z,9.50
2023-05-19T15:34:36.585Z,9.40
2023-05-19T15:37:04.567Z,9.90
2023-05-19T15:39:33.711Z,9.40
2023-05-19T15:42:01.680Z,8.40
2023-05-19T15:44:30.207Z,9.20
2023-05-19T15:46:58.047Z,9.80
2023-05-19T15:49:26.056Z,10.90
2023-05-19T15:51:53.916Z,10.50
2023-05-19T15:54:21.913Z,11.30
2023-05-19T15:56:49.658Z,10.30
2023-05-19T15:59:17.500Z,11.00
2023-05-19T16:01:45.404Z,11.00
2023-05-19T16:04:13.415Z,12.00
2023-05-19T16:06:41.454Z,11.10
2023-05-19T16:09:09.263Z,10.40
2023-05-19T16:11:37.068Z,11.00
2023-05-19T16:14:04.820Z,11.30
2023-05-19T16:16:32.662Z,10.70
2023-05-19T16:19:00.602Z,11.20
2023-05-19T16:21:28.528Z,10.20
2023-05-19T16:23:57.532Z,10.40
2023-05-19T16:26:26.498Z,10.20
2023-05-19T16:28:55.916Z,9.80
2023-05-19T16:31:23.868Z,9.80
2023-05-19T16:33:51.611Z,9.80
2023-05-19T16:36:20.010Z,10.90
2023-05-19T16:38:47.901Z,10.20
2023-05-19T16:41:15.721Z,10.60
2023-05-19T16:43:44.423Z,10.90
2023-05-19T16:46:12.642Z,10.60
2023-05-19T16:48:40.820Z,11.30
2023-05-19T16:51:08.733Z,12.80
2023-05-19T16:53:36.692Z,11.50
2023-05-19T16:56:05.004Z,11.30
2023-05-19T16:58:32.760Z,12.20
2023-05-19T17:01:00.682Z,11.60
2023-05-19T17:03:28.933Z,11.40
2023-05-19T17:05:56.871Z,11.40
2023-05-19T17:08:24.720Z,11.10
2023-05-19T17:10:52.600Z,11.60
2023-05-19T17:13:20.673Z,10.80
2023-05-19T17:15:52.646Z,11.40
2023-05-19T17:18:20.533Z,11.00
2023-05-19T17:20:48.418Z,10.60
2023-05-19T17:23:16.955Z,10.40
2023-05-19T17:25:44.921Z,11.40
2023-05-19T17:28:12.846Z,11.70
2023-05-19T17:30:41.497Z,11.50
2023-05-19T17:33:09.440Z,10.70
2023-05-19T17:35:37.267Z,11.40
2023-05-19T17:38:05.065Z,11.50
2023-05-19T17:40:33.919Z,10.60
2023-05-19T17:43:01.926Z,10.60
2023-05-19T17:45:29.942Z,10.40
2023-05-19T17:47:57.778Z,11.20
2023-05-19T17:50:25.749Z,10.50
2023-05-19T17:52:54.626Z,10.90
2023-05-19T17:55:24.777Z,11.30
2023-05-19T17:57:52.952Z,11.50
2023-05-19T18:00:21.628Z,11.40
2023-05-19T18:02:50.130Z,12.40
2023-05-19T18:05:19.583Z,12.20
2023-05-19T18:07:47.562Z,11.70
2023-05-19T18:10:16.903Z,11.70
2023-05-19T18:12:44.973Z,12.30
2023-05-19T18:15:13.201Z,11.80
2023-05-19T18:17:41.593Z,13.50
2023-05-19T18:20:11.394Z,12.80
2023-05-19T18:22:39.398Z,13.50
2023-05-19T18:25:07.828Z,12.30
2023-05-19T18:27:35.828Z,13.00
2023-05-19T18:30:06.026Z,14.00
2023-05-19T18:32:34.150Z,13.10
2023-05-19T18:35:02.164Z,14.50
2023-05-19T18:37:30.178Z,12.10
2023-05-19T18:39:58.030Z,12.80
2023-05-19T18:42:25.938Z,13.60
2023-05-19T18:44:53.907Z,13.20
2023-05-19T18:47:23.118Z,13.80
2023-05-19T18:49:51.003Z,13.20
2023-05-19T18:52:20.004Z,13.60
2023-05-19T18:54:48.883Z,13.20
2023-05-19T18:57:16.710Z,13.50
2023-05-19T18:59:44.667Z,12.50
2023-05-19T19:02:12.482Z,12.00
2023-05-19T19:04:40.368Z,14.60
2023-05-19T19:07:08.298Z,14.40
2023-05-19T19:09:36.118Z,14.60
2023-05-19T19:12:04.223Z,14.10
2023-05-19T19:14:32.604Z,13.20
2023-05-19T19:17:00.749Z,13.10
2023-05-19T19:19:30.509Z,13.10
2023-05-19T19:21:58.568Z,13.30
2023-05-19T19:24:26.725Z,12.40
2023-05-19T19:26:54.565Z,13.70
2023-05-19T19:29:22.417Z,13.80
2023-05-19T19:31:50.400Z,12.70
2023-05-19T19:34:19.962Z,13.20
2023-05-19T19:36:48.058Z,12.30
2023-05-19T19:39:16.387Z,13.50
2023-05-19T19:41:44.302Z,14.30
2023-05-19T19:44:13.502Z,13.60
2023-05-19T19:46:41.480Z,13.50
2023-05-19T19:49:09.417Z,12.30
2023-05-19T19:51:37.290Z,12.50
2023-05-19T19:54:05.055Z,15.60
2023-05-19T19:56:32.914Z,15.80
2023-05-19T19:59:01.520Z,15.10
2023-05-19T20:01:29.493Z,12.40
2023-05-19T20:03:57.840Z,13.80
2023-05-19T20:06:26.110Z,14.00
2023-05-19T20:08:53.987Z,15.50
2023-05-19T20:11:23.850Z,14.90
2023-05-19T20:13:52.242Z,15.40
2023-05-19T20:16:20.285Z,15.10
2023-05-19T20:18:48.216Z,14.40
2023-05-19T20:21:16.097Z,15.70
2023-05-19T20:23:44.020Z,15.30
2023-05-19T20:26:13.458Z,15.40
2023-05-19T20:28:41.761Z,15.50
2023-05-19T20:31:09.793Z,16.10
2023-05-19T20:33:37.689Z,17.70
2023-05-19T20:36:06.518Z,17.30
2023-05-19T20:38:34.414Z,16.80
2023-05-19T20:41:02.319Z,16.70
2023-05-19T20:43:32.099Z,15.90
2023-05-19T20:46:01.490Z,15.90
2023-05-19T20:48:29.487Z,14.80
2023-05-19T20:50:57.359Z,15.00
2023-05-19T20:53:25.167Z,14.90
2023-05-19T20:55:53.017Z,15.70
2023-05-19T20:58:20.884Z,15.30
2023-05-19T21:00:53.568Z,14.50
2023-05-19T21:03:23.394Z,15.40
2023-05-19T21:05:51.520Z,15.30
2023-05-19T21:08:19.426Z,15.00
2023-05-19T21:10:47.390Z,13.90
2023-05-19T21:13:15.224Z,15.10
2023-05-19T21:15:43.144Z,15.50
2023-05-19T21:18:12.050Z,15.30
2023-05-19T21:20:40.023Z,16.10
2023-05-19T21:23:07.870Z,15.00
2023-05-19T21:25:35.891Z,14.40
2023-05-19T21:28:04.197Z,15.30
2023-05-19T21:30:32.691Z,16.60
2023-05-19T21:33:00.854Z,16.00
2023-05-19T21:35:28.624Z,14.90
2023-05-19T21:37:56.574Z,14.70
2023-05-19T21:40:24.382Z,14.90
2023-05-19T21:42:52.178Z,14.90
2023-05-19T21:45:20.023Z,15.10
2023-05-19T21:47:48.016Z,15.90
2023-05-19T21:50:17.527Z,17.60
2023-05-19T21:52:45.343Z,15.20
2023-05-19T21:55:13.263Z,16.00
2023-05-19T21:57:41.254Z,16.00
2023-05-19T22:00:13.111Z,16.00
2023-05-19T22:02:41.260Z,16.70
2023-05-19T22:05:09.816Z,16.60
2023-05-19T22:07:37.959Z,17.00
2023-05-19T22:10:06.246Z,16.60
2023-05-19T22:12:34.008Z,17.00
2023-05-19T22:15:02.891Z,16.20
2023-05-19T22:17:30.807Z,16.30
2023-05-19T22:19:58.722Z,16.00
2023-05-19T22:22:26.629Z,15.80
2023-05-19T22:24:54.479Z,18.10
2023-05-19T22:27:22.380Z,17.60
2023-05-19T22:29:50.337Z,16.40
2023-05-19T22:32:19.524Z,16.50
2023-05-19T22:34:47.531Z,16.60
2023-05-19T22:37:15.490Z,15.80
2023-05-19T22:39:43.390Z,15.90
2023-05-19T22:42:11.161Z,15.60
2023-05-19T22:44:38.952Z,15.20
2023-05-19T22:47:06.768Z,15.80
2023-05-19T22:49:34.572Z,15.20
2023-05-19T22:52:02.339Z,15.50
2023-05-19T22:54:30.192Z,15.80
2023-05-19T22:56:58.034Z,14.80
2023-05-19T22:59:25.929Z,15.10
2023-05-19T23:01:53.796Z,15.30
2023-05-19T23:04:21.954Z,15.50
2023-05-19T23:06:50.206Z,16.00
2023-05-19T23:09:18.110Z,16.10
2023-05-19T23:11:46.302Z,15.60
2023-05-19T23:14:14.078Z,16.60
2023-05-19T23:16:41.941Z,16.20
2023-05-19T23:19:09.913Z,16.20
2023-05-19T23:21:37.718Z,16.50
2023-05-19T23:24:06.566Z,18.30
2023-05-19T23:26:34.382Z,18.20
2023-05-19T23:29:02.249Z,17.90
2023-05-19T23:31:30.247Z,18.30
2023-05-19T23:33:58.266Z,18.00
2023-05-19T23:36:26.142Z,19.30
2023-05-19T23:38:54.055Z,18.30
2023-05-19T23:41:21.872Z,18.70
2023-05-19T23:43:49.739Z,18.30
2023-05-19T23:46:17.784Z,19.20
2023-05-19T23:48:45.807Z,17.70
2023-05-19T23:51:13.616Z,18.30
2023-05-19T23:53:41.426Z,18.10
2023-05-19T23:56:10.594Z,18.10
2023-05-19T23:58:38.396Z,18.80
